Time;durP1;ratioP1;P1;durP2;ratioP2;P2;SDS_P1;SDS_P2;PMS_P1;PMS_P2;Temp;Humidity;BMP_temperature;BMP_pressure;BME280_temperature;BME280_humidity;BME280_pressure;Samples;Min_cycle;Max_cycle;Signal;HPM_P1;HPM_P2
2023/10/27 00:00:32;;;;;;;16.45;5.90;;;;;;;;;;5953848;29;20058;-89
2023/10/27 00:03:33;;;;;;;14.68;5.95;;;;;;;;;;5949079;29;20051;-89
2023/10/27 00:06:35;;;;;;;13.40;6.07;;;;;;;;;;5930579;29;20065;-91
2023/10/27 00:09:37;;;;;;;12.80;5.50;;;;;;;;;;5929363;29;20114;-89
2023/10/27 00:12:39;;;;;;;14.50;6.35;;;;;;;;;;5949901;29;20054;-89
2023/10/27 00:15:41;;;;;;;13.07;5.55;;;;;;;;;;5950950;29;20096;-90
2023/10/27 00:18:43;;;;;;;15.05;6.57;;;;;;;;;;5943404;29;20078;-90
2023/10/27 00:21:45;;;;;;;13.63;6.05;;;;;;;;;;5929342;29;20050;-89
2023/10/27 00:24:46;;;;;;;15.90;5.97;;;;;;;;;;5945191;29;20053;-90
2023/10/27 00:27:49;;;;;;;16.60;6.65;;;;;;;;;;5947815;29;20054;-89
2023/10/27 00:30:51;;;;;;;15.57;5.95;;;;;;;;;;5945499;29;20073;-90
2023/10/27 00:33:54;;;;;;;15.07;6.90;;;;;;;;;;5932946;29;20135;-89
2023/10/27 00:36:55;;;;;;;14.05;6.43;;;;;;;;;;5933114;29;20138;-90
2023/10/27 00:39:57;;;;;;;15.30;6.13;;;;;;;;;;5946387;29;20077;-89
2023/10/27 00:43:03;;;;;;;17.38;6.95;;;;;;;;;;5946706;29;20051;-87
2023/10/27 00:46:05;;;;;;;15.65;6.60;;;;;;;;;;5935376;29;20049;-87
2023/10/27 00:49:07;;;;;;;16.67;6.13;;;;;;;;;;5935175;29;20046;-87
2023/10/27 00:52:11;;;;;;;16.27;6.55;;;;;;;;;;5949531;29;20054;-89
2023/10/27 00:55:13;;;;;;;14.60;6.60;;;;;;;;;;5953488;29;20054;-88
2023/10/27 00:58:16;;;;;;;17.00;6.93;;;;;;;;;;5951596;29;20054;-88
2023/10/27 01:01:18;;;;;;;15.57;6.22;;;;;;;;;;5939587;29;20043;-88
2023/10/27 01:04:19;;;;;;;14.82;6.15;;;;;;;;;;5944505;29;20570;-88
2023/10/27 01:07:23;;;;;;;14.57;6.18;;;;;;;;;;5950581;29;20063;-88
2023/10/27 01:10:26;;;;;;;14.05;6.03;;;;;;;;;;5947119;29;20042;-89
2023/10/27 01:13:27;;;;;;;13.50;6.20;;;;;;;;;;5953039;29;20047;-89
2023/10/27 01:16:29;;;;;;;12.43;5.55;;;;;;;;;;5952738;29;20061;-88
2023/10/27 01:19:31;;;;;;;13.35;5.47;;;;;;;;;;5953584;29;20061;-88
2023/10/27 01:22:34;;;;;;;17.15;6.05;;;;;;;;;;5952695;29;20051;-88
2023/10/27 01:25:36;;;;;;;15.27;6.10;;;;;;;;;;5951142;29;20046;-89
2023/10/27 01:28:37;;;;;;;12.93;5.93;;;;;;;;;;5956877;29;20084;-89
2023/10/27 01:31:39;;;;;;;12.05;5.72;;;;;;;;;;5972727;29;20062;-89
2023/10/27 01:34:40;;;;;;;15.45;6.18;;;;;;;;;;5981188;29;20302;-89
2023/10/27 01:37:42;;;;;;;12.73;5.65;;;;;;;;;;5980706;29;20043;-89
2023/10/27 01:40:44;;;;;;;13.98;6.22;;;;;;;;;;5966657;29;20059;-88
2023/10/27 01:43:46;;;;;;;14.55;5.78;;;;;;;;;;5958152;29;20063;-88
2023/10/27 01:46:47;;;;;;;14.43;6.20;;;;;;;;;;5933291;29;20066;-88
2023/10/27 01:49:49;;;;;;;14.45;5.70;;;;;;;;;;5953233;29;20514;-89
2023/10/27 01:52:51;;;;;;;14.00;5.68;;;;;;;;;;5947413;29;20595;-88
2023/10/27 01:55:52;;;;;;;14.20;5.93;;;;;;;;;;5937527;29;20130;-88
2023/10/27 01:58:54;;;;;;;13.63;5.35;;;;;;;;;;5955036;29;20050;-88
2023/10/27 02:01:55;;;;;;;16.67;5.85;;;;;;;;;;5935081;29;20054;-89
2023/10/27 02:04:57;;;;;;;16.10;6.32;;;;;;;;;;5946286;29;20431;-88
2023/10/27 02:08:01;;;;;;;17.90;5.75;;;;;;;;;;5934340;29;20058;-88
2023/10/27 02:11:03;;;;;;;20.10;6.15;;;;;;;;;;5961546;29;20057;-88
2023/10/27 02:14:04;;;;;;;17.45;6.82;;;;;;;;;;5957073;29;20050;-87
2023/10/27 02:17:06;;;;;;;13.30;5.60;;;;;;;;;;5954648;29;20532;-88
2023/10/27 02:20:08;;;;;;;13.13;6.30;;;;;;;;;;5950102;29;20058;-88
2023/10/27 02:23:15;;;;;;;15.73;6.88;;;;;;;;;;5940396;29;20051;-89
2023/10/27 02:26:16;;;;;;;17.00;6.45;;;;;;;;;;5954327;29;20421;-88
2023/10/27 02:29:20;;;;;;;20.23;7.28;;;;;;;;;;5951517;29;20057;-88
2023/10/27 02:32:21;;;;;;;18.70;6.40;;;;;;;;;;5959289;29;20146;-89
2023/10/27 02:35:25;;;;;;;21.48;6.55;;;;;;;;;;5979985;29;20607;-88
2023/10/27 02:38:27;;;;;;;15.15;6.75;;;;;;;;;;5976664;29;20131;-88
2023/10/27 02:41:28;;;;;;;17.65;6.15;;;;;;;;;;5958502;29;20055;-88
2023/10/27 02:44:30;;;;;;;18.75;6.72;;;;;;;;;;5977165;29;20050;-88
2023/10/27 02:47:31;;;;;;;16.63;6.50;;;;;;;;;;5957403;29;20058;-89
2023/10/27 02:50:33;;;;;;;16.02;7.03;;;;;;;;;;5953857;29;20070;-88
2023/10/27 02:53:35;;;;;;;18.23;6.88;;;;;;;;;;5935429;29;20050;-88
2023/10/27 02:56:37;;;;;;;14.93;5.68;;;;;;;;;;5949636;29;20059;-89
2023/10/27 02:59:39;;;;;;;18.42;6.63;;;;;;;;;;5935302;29;20462;-89
2023/10/27 03:02:40;;;;;;;18.55;5.80;;;;;;;;;;5934681;29;20058;-88
2023/10/27 03:05:42;;;;;;;14.93;6.88;;;;;;;;;;5952961;29;20069;-88
2023/10/27 03:08:44;;;;;;;14.48;5.97;;;;;;;;;;5946499;29;20471;-89
2023/10/27 03:11:46;;;;;;;13.30;5.67;;;;;;;;;;5951079;29;20061;-88
2023/10/27 03:14:48;;;;;;;10.73;4.97;;;;;;;;;;5934569;29;20072;-89
2023/10/27 03:17:50;;;;;;;28.13;6.50;;;;;;;;;;5949677;29;20394;-89
2023/10/27 03:21:00;;;;;;;17.02;5.95;;;;;;;;;;5956164;29;20047;-88
2023/10/27 03:24:01;;;;;;;17.70;6.43;;;;;;;;;;5957431;29;20050;-88
2023/10/27 03:27:04;;;;;;;15.30;6.05;;;;;;;;;;5949640;29;20658;-88
2023/10/27 03:30:07;;;;;;;16.40;6.25;;;;;;;;;;5943656;29;20126;-87
2023/10/27 03:33:09;;;;;;;14.23;6.38;;;;;;;;;;5937976;29;20498;-88
2023/10/27 03:36:11;;;;;;;15.45;5.82;;;;;;;;;;5948286;29;20156;-89
2023/10/27 03:39:13;;;;;;;12.18;5.45;;;;;;;;;;5949560;29;20200;-90
2023/10/27 03:42:15;;;;;;;23.92;10.82;;;;;;;;;;5919630;29;20122;-89
2023/10/27 03:45:16;;;;;;;17.48;6.65;;;;;;;;;;5939611;29;20055;-88
2023/10/27 03:48:18;;;;;;;15.52;5.47;;;;;;;;;;5950761;29;20050;-88
2023/10/27 03:51:20;;;;;;;12.95;6.03;;;;;;;;;;5932366;29;20055;-89
2023/10/27 03:54:21;;;;;;;16.05;5.93;;;;;;;;;;5937454;29;20058;-89
2023/10/27 03:57:23;;;;;;;13.10;5.28;;;;;;;;;;5949281;29;20051;-88
2023/10/27 04:00:25;;;;;;;16.40;5.47;;;;;;;;;;5932550;29;20358;-88
2023/10/27 04:03:27;;;;;;;13.35;5.00;;;;;;;;;;5933756;29;20314;-88
2023/10/27 04:06:28;;;;;;;15.80;5.18;;;;;;;;;;5949160;29;20050;-88
2023/10/27 04:09:30;;;;;;;14.10;5.80;;;;;;;;;;5937212;29;20055;-89
2023/10/27 04:12:32;;;;;;;12.52;5.18;;;;;;;;;;5933697;29;20062;-89
2023/10/27 04:15:35;;;;;;;13.55;5.78;;;;;;;;;;5947751;29;20137;-88
2023/10/27 04:18:38;;;;;;;16.38;5.40;;;;;;;;;;5926615;29;20058;-89
2023/10/27 04:21:40;;;;;;;14.23;5.45;;;;;;;;;;5947359;29;20047;-88
2023/10/27 04:24:42;;;;;;;15.77;5.13;;;;;;;;;;5935761;29;20146;-88
2023/10/27 04:27:43;;;;;;;13.88;5.60;;;;;;;;;;5958467;29;20057;-89
2023/10/27 04:30:45;;;;;;;13.25;6.15;;;;;;;;;;5966972;29;20511;-89
2023/10/27 04:33:50;;;;;;;11.73;4.97;;;;;;;;;;5936111;29;20047;-88
2023/10/27 04:36:54;;;;;;;15.13;5.45;;;;;;;;;;5947874;29;20202;-88
2023/10/27 04:39:56;;;;;;;13.88;5.60;;;;;;;;;;5949659;29;20099;-89
2023/10/27 04:42:59;;;;;;;14.02;5.35;;;;;;;;;;5948897;29;20047;-89
2023/10/27 04:46:01;;;;;;;;;;;;;;;;;;5937771;29;20055;-89
2023/10/27 04:49:04;;;;;;;13.43;5.25;;;;;;;;;;5937181;29;20430;-89
2023/10/27 04:52:05;;;;;;;17.33;6.03;;;;;;;;;;5929240;29;20189;-88
2023/10/27 04:55:08;;;;;;;12.23;6.38;;;;;;;;;;5950914;29;20047;-89
2023/10/27 04:58:13;;;;;;;16.33;6.38;;;;;;;;;;5950669;29;20047;-89
2023/10/27 05:01:15;;;;;;;14.43;6.60;;;;;;;;;;5947418;29;20054;-89
2023/10/27 05:04:16;;;;;;;19.85;8.82;;;;;;;;;;5944044;29;20571;-89
2023/10/27 05:07:18;;;;;;;17.15;8.05;;;;;;;;;;5951418;29;20557;-89
2023/10/27 05:10:20;;;;;;;22.10;8.55;;;;;;;;;;5937539;29;20054;-89
2023/10/27 05:13:22;;;;;;;17.20;7.22;;;;;;;;;;5939759;29;20055;-89
2023/10/27 05:16:23;;;;;;;22.35;7.80;;;;;;;;;;5934067;29;20067;-89
2023/10/27 05:19:25;;;;;;;18.95;7.50;;;;;;;;;;5935321;29;20062;-88
2023/10/27 05:22:27;;;;;;;18.33;6.95;;;;;;;;;;5952237;29;20501;-88
2023/10/27 05:25:29;;;;;;;19.02;7.43;;;;;;;;;;5937082;29;20430;-89
2023/10/27 05:28:30;;;;;;;18.70;6.60;;;;;;;;;;5935835;29;20308;-88
2023/10/27 05:31:34;;;;;;;18.98;5.72;;;;;;;;;;5955015;29;20055;-89
2023/10/27 05:34:36;;;;;;;15.25;5.95;;;;;;;;;;5956282;29;20054;-88
2023/10/27 05:37:38;;;;;;;14.98;6.00;;;;;;;;;;5970322;29;20069;-88
2023/10/27 05:40:40;;;;;;;13.95;6.13;;;;;;;;;;5951127;29;20055;-89
2023/10/27 05:43:41;;;;;;;17.35;6.30;;;;;;;;;;5955690;29;20506;-87
2023/10/27 05:46:43;;;;;;;15.18;5.82;;;;;;;;;;5935033;29;20051;-89
2023/10/27 05:49:45;;;;;;;15.00;6.07;;;;;;;;;;5939221;29;20077;-89
2023/10/27 05:52:47;;;;;;;17.35;6.97;;;;;;;;;;5939619;29;20051;-88
2023/10/27 05:55:48;;;;;;;15.98;6.28;;;;;;;;;;5954559;29;20055;-89
2023/10/27 05:58:50;;;;;;;14.63;5.82;;;;;;;;;;5953481;29;20130;-89
2023/10/27 06:01:54;;;;;;;23.77;10.82;;;;;;;;;;5953376;29;20070;-90
2023/10/27 06:05:13;;;;;;;14.50;6.50;;;;;;;;;;5940415;29;20486;-89
2023/10/27 06:08:14;;;;;;;15.90;7.20;;;;;;;;;;5953851;29;20122;-89
2023/10/27 06:11:16;;;;;;;16.52;6.80;;;;;;;;;;5949811;29;20055;-89
2023/10/27 06:14:20;;;;;;;13.20;6.80;;;;;;;;;;5951446;29;20055;-89
2023/10/27 06:17:22;;;;;;;13.18;7.43;;;;;;;;;;5951207;29;20106;-90
2023/10/27 06:20:24;;;;;;;16.40;7.47;;;;;;;;;;5937535;29;20055;-88
2023/10/27 06:23:26;;;;;;;24.83;11.80;;;;;;;;;;5950372;29;20426;-89
2023/10/27 06:26:27;;;;;;;18.02;8.20;;;;;;;;;;5935708;29;20547;-89
2023/10/27 06:29:29;;;;;;;16.70;7.57;;;;;;;;;;5951821;29;20059;-89
2023/10/27 06:32:31;;;;;;;16.58;7.35;;;;;;;;;;5942187;29;20137;-89
2023/10/27 06:35:33;;;;;;;14.60;6.63;;;;;;;;;;5935291;29;20054;-88
2023/10/27 06:38:36;;;;;;;15.45;6.97;;;;;;;;;;5945104;29;20432;-89
2023/10/27 06:41:37;;;;;;;14.10;7.90;;;;;;;;;;5939402;29;20426;-88
2023/10/27 06:44:39;;;;;;;19.65;8.00;;;;;;;;;;5970524;29;20116;-88
2023/10/27 06:47:41;;;;;;;19.13;7.70;;;;;;;;;;5945272;29;20074;-89
2023/10/27 06:50:43;;;;;;;21.60;8.23;;;;;;;;;;5937864;29;20050;-89
2023/10/27 06:53:45;;;;;;;133.50;71.25;;;;;;;;;;5918454;29;20534;-89
2023/10/27 06:56:47;;;;;;;65.60;35.03;;;;;;;;;;5928941;29;20047;-89
2023/10/27 06:59:49;;;;;;;175.00;79.28;;;;;;;;;;5922400;29;20573;-89
2023/10/27 07:02:51;;;;;;;97.88;53.83;;;;;;;;;;5918674;29;20418;-89
2023/10/27 07:05:59;;;;;;;19.98;9.95;;;;;;;;;;5912032;29;20108;-89
2023/10/27 07:09:03;;;;;;;16.05;8.35;;;;;;;;;;5891449;29;20047;-89
2023/10/27 07:12:08;;;;;;;24.25;13.40;;;;;;;;;;5929593;29;20047;-89
2023/10/27 07:15:12;;;;;;;21.33;12.73;;;;;;;;;;5920993;29;20055;-90
2023/10/27 07:18:14;;;;;;;20.45;9.77;;;;;;;;;;5950472;29;20043;-91
2023/10/27 07:21:16;;;;;;;18.23;9.45;;;;;;;;;;5947335;29;20058;-89
2023/10/27 07:24:18;;;;;;;18.40;9.68;;;;;;;;;;5946419;29;20079;-90
2023/10/27 07:27:20;;;;;;;17.60;9.50;;;;;;;;;;5919953;29;20130;-90
2023/10/27 07:30:21;;;;;;;15.70;9.23;;;;;;;;;;5923001;29;20078;-89
2023/10/27 07:33:23;;;;;;;19.55;9.77;;;;;;;;;;5934732;29;20131;-89
2023/10/27 07:36:25;;;;;;;16.67;8.55;;;;;;;;;;5932684;29;20054;-91
2023/10/27 07:39:26;;;;;;;21.13;12.38;;;;;;;;;;5934185;29;20051;-90
2023/10/27 07:42:28;;;;;;;14.30;8.10;;;;;;;;;;5934591;29;20046;-89
2023/10/27 07:45:30;;;;;;;19.10;11.27;;;;;;;;;;5921233;29;20395;-89
2023/10/27 07:48:32;;;;;;;43.42;32.33;;;;;;;;;;5931278;29;20055;-89
2023/10/27 07:51:34;;;;;;;14.57;8.30;;;;;;;;;;5966949;29;20066;-88
2023/10/27 07:54:35;;;;;;;12.40;7.15;;;;;;;;;;5939190;29;20051;-90
2023/10/27 07:57:37;;;;;;;13.75;8.63;;;;;;;;;;5961535;29;20041;-90
2023/10/27 08:00:39;;;;;;;17.30;10.00;;;;;;;;;;5946101;29;20132;-89
2023/10/27 08:03:41;;;;;;;14.48;8.48;;;;;;;;;;5944507;29;20055;-87
2023/10/27 08:06:43;;;;;;;13.73;9.00;;;;;;;;;;5938246;29;20054;-88
2023/10/27 08:09:45;;;;;;;14.30;7.72;;;;;;;;;;5930986;29;20103;-88
2023/10/27 08:12:47;;;;;;;12.52;7.93;;;;;;;;;;5929754;29;20049;-88
2023/10/27 08:15:49;;;;;;;12.95;6.75;;;;;;;;;;5951080;29;20055;-89
2023/10/27 08:18:51;;;;;;;10.52;6.05;;;;;;;;;;5931358;29;20074;-88
2023/10/27 08:21:53;;;;;;;11.35;7.30;;;;;;;;;;5913286;29;20051;-88
2023/10/27 08:24:55;;;;;;;12.30;6.53;;;;;;;;;;5933402;29;20077;-89
2023/10/27 08:28:00;;;;;;;15.23;6.63;;;;;;;;;;5934602;29;20055;-89
2023/10/27 08:31:02;;;;;;;26.98;15.27;;;;;;;;;;5916873;29;20063;-89
2023/10/27 08:34:05;;;;;;;17.27;9.30;;;;;;;;;;5911811;29;20062;-89
2023/10/27 08:37:07;;;;;;;14.63;7.38;;;;;;;;;;5933110;29;20047;-89
2023/10/27 08:40:11;;;;;;;14.35;8.07;;;;;;;;;;5925794;29;20639;-89
2023/10/27 08:43:14;;;;;;;13.20;6.95;;;;;;;;;;5938165;29;20047;-90
2023/10/27 08:46:16;;;;;;;12.10;7.03;;;;;;;;;;5942295;29;20634;-89
2023/10/27 08:49:18;;;;;;;13.55;7.25;;;;;;;;;;5942954;29;20510;-89
2023/10/27 08:52:20;;;;;;;11.60;6.97;;;;;;;;;;5958483;29;20047;-89
2023/10/27 08:55:22;;;;;;;10.85;6.75;;;;;;;;;;5945422;29;20051;-89
2023/10/27 08:58:29;;;;;;;14.02;8.00;;;;;;;;;;5952558;29;20039;-89
2023/10/27 09:01:36;;;;;;;14.40;6.70;;;;;;;;;;5957493;29;20058;-90
2023/10/27 09:04:44;;;;;;;10.90;6.68;;;;;;;;;;5931183;29;20059;-88
2023/10/27 09:07:46;;;;;;;12.23;7.25;;;;;;;;;;5929303;29;20047;-88
2023/10/27 09:10:47;;;;;;;8.43;4.68;;;;;;;;;;5967447;29;20043;-87
2023/10/27 09:13:49;;;;;;;8.45;5.35;;;;;;;;;;5935371;29;20050;-88
2023/10/27 09:16:51;;;;;;;8.18;4.65;;;;;;;;;;5948576;29;20065;-89
2023/10/27 09:20:07;;;;;;;6.90;3.60;;;;;;;;;;5929998;29;20051;-89
2023/10/27 09:23:09;;;;;;;4.40;2.83;;;;;;;;;;5947591;29;20059;-89
2023/10/27 09:26:11;;;;;;;4.35;2.80;;;;;;;;;;5959234;29;20043;-88
2023/10/27 09:29:16;;;;;;;7.88;4.22;;;;;;;;;;5956717;29;20050;-89
2023/10/27 09:32:25;;;;;;;6.35;4.20;;;;;;;;;;5955022;29;20058;-89
2023/10/27 09:35:28;;;;;;;3.15;2.17;;;;;;;;;;5958106;29;20047;-88
2023/10/27 09:38:30;;;;;;;3.58;1.98;;;;;;;;;;5949921;29;20047;-89
2023/10/27 09:41:34;;;;;;;3.90;1.90;;;;;;;;;;5961800;29;20373;-88
2023/10/27 09:45:02;;;;;;;3.45;2.40;;;;;;;;;;5957630;29;20156;-89
2023/10/27 09:48:06;;;;;;;3.95;1.40;;;;;;;;;;5948748;29;20066;-89
2023/10/27 09:51:10;;;;;;;6.55;2.97;;;;;;;;;;5949260;29;20545;-88
2023/10/27 09:54:12;;;;;;;5.63;3.13;;;;;;;;;;5951286;29;20055;-88
2023/10/27 09:57:14;;;;;;;4.80;3.13;;;;;;;;;;5937546;29;20565;-88
2023/10/27 10:00:20;;;;;;;1.75;0.88;;;;;;;;;;5945357;29;20532;-88
2023/10/27 10:03:24;;;;;;;1.88;0.90;;;;;;;;;;5957797;29;20073;-89
2023/10/27 10:06:29;;;;;;;1.63;1.20;;;;;;;;;;5945899;29;20597;-90
2023/10/27 10:09:47;;;;;;;2.33;2.03;;;;;;;;;;5949497;29;20066;-90
2023/10/27 10:13:12;;;;;;;2.42;1.23;;;;;;;;;;5935455;29;20055;-89
2023/10/27 10:16:14;;;;;;;4.30;3.20;;;;;;;;;;5932908;29;20070;-89
2023/10/27 10:19:52;;;;;;;1.92;1.40;;;;;;;;;;5955124;29;20119;-89
2023/10/27 10:24:10;;;;;;;3.47;1.52;;;;;;;;;;5917496;29;20051;-89
2023/10/27 10:27:58;;;;;;;1.73;1.08;;;;;;;;;;5882254;29;20129;-89
2023/10/27 10:35:38;;;;;;;;;;;;;;;;;;;;;
2023/10/27 10:39:28;;;;;;;3.28;1.35;;;;;;;;;;5919184;29;20046;-89
2023/10/27 10:43:30;;;;;;;2.50;1.35;;;;;;;;;;5931566;29;20047;-90
2023/10/27 10:46:32;;;;;;;1.90;1.30;;;;;;;;;;5952900;29;20062;-89
2023/10/27 10:49:36;;;;;;;2.22;1.50;;;;;;;;;;5952064;29;20055;-88
2023/10/27 10:52:38;;;;;;;2.97;1.40;;;;;;;;;;5948558;29;20170;-88
2023/10/27 10:55:40;;;;;;;2.60;1.30;;;;;;;;;;5949883;29;20047;-90
2023/10/27 10:58:42;;;;;;;3.73;1.33;;;;;;;;;;5932097;29;20051;-89
2023/10/27 11:01:44;;;;;;;1.35;1.10;;;;;;;;;;5947529;29;20051;-90
2023/10/27 11:04:45;;;;;;;1.35;0.93;;;;;;;;;;5950912;29;20109;-89
2023/10/27 11:07:48;;;;;;;2.03;1.00;;;;;;;;;;5951256;29;20417;-89
2023/10/27 11:11:03;;;;;;;3.13;0.90;;;;;;;;;;5966686;29;20050;-88
2023/10/27 11:14:05;;;;;;;1.08;0.98;;;;;;;;;;5965870;29;20092;-89
2023/10/27 11:17:11;;;;;;;2.38;1.10;;;;;;;;;;5936983;29;20050;-89
2023/10/27 11:20:13;;;;;;;0.98;0.73;;;;;;;;;;5951059;29;20426;-89
2023/10/27 11:23:16;;;;;;;0.80;0.80;;;;;;;;;;5948684;29;20049;-89
2023/10/27 11:26:20;;;;;;;1.25;0.88;;;;;;;;;;5949984;29;20051;-90
2023/10/27 11:29:22;;;;;;;2.85;1.08;;;;;;;;;;5937920;29;21326;-91
2023/10/27 11:32:24;;;;;;;2.30;0.90;;;;;;;;;;5933386;29;20057;-89
2023/10/27 11:35:26;;;;;;;0.88;0.80;;;;;;;;;;5938871;29;20055;-89
2023/10/27 11:38:31;;;;;;;1.10;0.90;;;;;;;;;;5942071;29;20066;-89
2023/10/27 11:41:33;;;;;;;1.17;0.90;;;;;;;;;;5932529;29;20042;-89
2023/10/27 11:44:40;;;;;;;1.25;1.02;;;;;;;;;;5954566;29;20050;-89
2023/10/27 11:47:44;;;;;;;2.15;0.90;;;;;;;;;;5939902;29;20162;-88
2023/10/27 11:50:52;;;;;;;1.30;0.80;;;;;;;;;;5943015;29;20100;-90
2023/10/27 11:53:57;;;;;;;0.85;0.70;;;;;;;;;;5944869;29;20058;-89
2023/10/27 11:56:58;;;;;;;2.90;0.90;;;;;;;;;;5947104;29;20073;-89
2023/10/27 12:00:00;;;;;;;0.90;0.80;;;;;;;;;;5947383;29;20053;-89
2023/10/27 12:03:10;;;;;;;1.85;0.90;;;;;;;;;;5940890;29;20062;-90
2023/10/27 12:06:12;;;;;;;2.05;1.20;;;;;;;;;;5945660;29;20051;-90
2023/10/27 12:09:14;;;;;;;2.83;1.20;;;;;;;;;;5925894;29;20040;-90
2023/10/27 12:12:16;;;;;;;2.05;1.15;;;;;;;;;;5951751;29;20051;-90
2023/10/27 12:15:17;;;;;;;4.35;1.30;;;;;;;;;;5950646;29;20051;-90
2023/10/27 12:18:23;;;;;;;3.80;1.85;;;;;;;;;;5936666;29;20058;-89
2023/10/27 12:21:28;;;;;;;3.80;2.20;;;;;;;;;;5907855;29;20054;-90
2023/10/27 12:24:34;;;;;;;3.75;1.42;;;;;;;;;;5929268;29;20389;-90
2023/10/27 12:27:36;;;;;;;1.52;0.90;;;;;;;;;;5945635;29;20054;-90
2023/10/27 12:30:37;;;;;;;2.38;0.63;;;;;;;;;;5934169;29;20527;-90
2023/10/27 12:33:43;;;;;;;2.70;1.20;;;;;;;;;;5952759;29;20093;-90
2023/10/27 12:36:45;;;;;;;2.33;1.08;;;;;;;;;;5946230;29;20446;-89
2023/10/27 12:39:48;;;;;;;1.17;0.90;;;;;;;;;;5926202;29;20051;-90
2023/10/27 12:42:50;;;;;;;1.42;0.80;;;;;;;;;;5935230;29;20054;-90
2023/10/27 12:45:52;;;;;;;0.68;0.65;;;;;;;;;;5947182;29;20137;-90
2023/10/27 12:48:54;;;;;;;1.58;1.10;;;;;;;;;;5942317;29;20144;-91
2023/10/27 12:51:56;;;;;;;3.95;1.13;;;;;;;;;;5963792;29;20060;-91
2023/10/27 12:54:58;;;;;;;3.67;1.10;;;;;;;;;;5975784;29;20031;-91
2023/10/27 12:58:03;;;;;;;3.75;1.50;;;;;;;;;;5972670;29;20053;-90
2023/10/27 13:01:06;;;;;;;3.97;1.45;;;;;;;;;;5949528;29;20053;-90
2023/10/27 13:04:08;;;;;;;2.42;1.02;;;;;;;;;;5946347;29;20054;-91
2023/10/27 13:07:11;;;;;;;2.28;0.98;;;;;;;;;;5947073;29;20051;-90
2023/10/27 13:10:12;;;;;;;4.30;2.42;;;;;;;;;;5934150;29;20066;-90
2023/10/27 13:13:14;;;;;;;3.03;1.08;;;;;;;;;;5951772;29;20533;-90
2023/10/27 13:16:16;;;;;;;2.10;1.00;;;;;;;;;;5945912;29;20598;-91
2023/10/27 13:19:18;;;;;;;4.40;0.95;;;;;;;;;;5942337;29;20042;-92
2023/10/27 13:22:25;;;;;;;4.10;0.73;;;;;;;;;;5976394;29;20035;-91
2023/10/27 13:25:27;;;;;;;3.03;0.80;;;;;;;;;;5966650;29;20637;-91
2023/10/27 13:28:29;;;;;;;3.08;0.75;;;;;;;;;;5962945;29;20039;-91
2023/10/27 13:31:32;;;;;;;4.60;0.95;;;;;;;;;;5973314;29;20038;-89
2023/10/27 13:34:34;;;;;;;5.38;1.20;;;;;;;;;;5943712;29;20061;-90
2023/10/27 13:37:36;;;;;;;3.67;1.00;;;;;;;;;;5938228;29;20089;-90
2023/10/27 13:40:39;;;;;;;1.88;0.90;;;;;;;;;;5939878;29;20071;-91
2023/10/27 13:43:41;;;;;;;4.72;1.02;;;;;;;;;;5941709;29;20047;-90
2023/10/27 13:46:43;;;;;;;4.68;1.85;;;;;;;;;;5951804;29;20055;-91
2023/10/27 13:49:44;;;;;;;3.17;0.90;;;;;;;;;;5946140;29;20050;-91
2023/10/27 13:52:46;;;;;;;3.33;1.05;;;;;;;;;;5941632;29;20176;-90
2023/10/27 13:55:48;;;;;;;5.40;1.20;;;;;;;;;;5957879;29;20517;-90
2023/10/27 13:58:51;;;;;;;7.68;1.63;;;;;;;;;;5933208;29;20051;-90
2023/10/27 14:01:54;;;;;;;4.57;1.13;;;;;;;;;;5933840;29;20055;-90
2023/10/27 14:04:56;;;;;;;4.68;1.10;;;;;;;;;;5950914;29;20043;-91
2023/10/27 14:07:59;;;;;;;4.50;1.23;;;;;;;;;;5937088;29;20103;-90
2023/10/27 14:11:04;;;;;;;3.58;1.20;;;;;;;;;;5950387;29;20065;-91
2023/10/27 14:14:05;;;;;;;5.45;0.90;;;;;;;;;;5945158;29;20209;-90
2023/10/27 14:17:08;;;;;;;5.65;0.95;;;;;;;;;;5946713;29;20123;-90
2023/10/27 14:20:10;;;;;;;;;;;;;;;;;;5952696;29;20055;-89
2023/10/27 14:23:12;;;;;;;3.63;1.00;;;;;;;;;;5933866;29;19925;-91
2023/10/27 14:26:14;;;;;;;6.20;1.13;;;;;;;;;;5936014;29;20085;-90
2023/10/27 14:29:16;;;;;;;2.20;1.10;;;;;;;;;;5934145;29;20059;-90
2023/10/27 14:32:18;;;;;;;2.40;0.90;;;;;;;;;;5945582;29;20116;-91
2023/10/27 14:35:20;;;;;;;4.10;1.37;;;;;;;;;;5945044;29;20195;-90
2023/10/27 14:38:22;;;;;;;5.15;1.67;;;;;;;;;;5941002;29;20058;-91
2023/10/27 14:41:24;;;;;;;3.10;1.20;;;;;;;;;;5937273;29;20111;-90
2023/10/27 14:44:26;;;;;;;2.13;0.90;;;;;;;;;;5931274;29;20051;-91
2023/10/27 14:47:28;;;;;;;5.18;0.93;;;;;;;;;;5934724;29;20659;-91
2023/10/27 14:50:44;;;;;;;1.80;1.38;;;;;;;;;;5945052;29;20055;-91
2023/10/27 14:53:46;;;;;;;2.33;0.82;;;;;;;;;;5932338;29;20055;-91
2023/10/27 14:56:48;;;;;;;1.80;0.70;;;;;;;;;;5943766;29;20506;-90
2023/10/27 14:59:51;;;;;;;4.30;1.20;;;;;;;;;;5946203;29;20047;-91
2023/10/27 15:02:53;;;;;;;1.65;0.88;;;;;;;;;;5932443;29;20126;-90
2023/10/27 15:05:55;;;;;;;2.60;0.77;;;;;;;;;;5949799;29;20055;-90
2023/10/27 15:08:57;;;;;;;2.63;0.90;;;;;;;;;;5949077;29;20055;-91
2023/10/27 15:11:59;;;;;;;2.08;1.00;;;;;;;;;;5935557;29;20043;-90
2023/10/27 15:15:01;;;;;;;5.88;1.17;;;;;;;;;;5932552;29;20240;-90
2023/10/27 15:18:03;;;;;;;2.45;0.80;;;;;;;;;;5948359;29;20055;-91
2023/10/27 15:21:08;;;;;;;2.57;0.90;;;;;;;;;;5928525;29;20110;-91
2023/10/27 15:24:11;;;;;;;4.03;1.02;;;;;;;;;;5949206;29;20488;-90
2023/10/27 15:27:13;;;;;;;;;;;;;;;;;;5930071;29;20422;-89
2023/10/27 15:30:15;;;;;;;4.40;0.90;;;;;;;;;;5941170;29;20008;-90
2023/10/27 15:33:17;;;;;;;1.60;0.90;;;;;;;;;;5947174;29;20142;-89
2023/10/27 15:36:19;;;;;;;3.67;1.45;;;;;;;;;;5945370;29;20128;-90
2023/10/27 15:39:22;;;;;;;1.88;0.82;;;;;;;;;;5948811;29;20062;-90
2023/10/27 15:42:23;;;;;;;1.95;0.80;;;;;;;;;;5930736;29;20051;-89
2023/10/27 15:45:25;;;;;;;4.35;0.90;;;;;;;;;;5932961;29;20583;-90
2023/10/27 15:48:27;;;;;;;1.58;0.90;;;;;;;;;;5949116;29;20055;-89
2023/10/27 15:51:29;;;;;;;1.13;0.90;;;;;;;;;;5945426;29;20143;-89
2023/10/27 15:54:31;;;;;;;3.22;0.90;;;;;;;;;;5946119;29;20151;-89
2023/10/27 15:57:33;;;;;;;3.85;1.10;;;;;;;;;;5948139;29;20051;-90
2023/10/27 16:00:35;;;;;;;3.05;1.00;;;;;;;;;;5927398;29;20059;-90
2023/10/27 16:03:37;;;;;;;4.25;1.90;;;;;;;;;;5946182;29;20107;-89
2023/10/27 16:06:38;;;;;;;3.60;1.40;;;;;;;;;;5947155;29;20061;-89
2023/10/27 16:09:42;;;;;;;4.15;1.70;;;;;;;;;;5932845;29;20114;-90
2023/10/27 16:12:44;;;;;;;3.92;2.10;;;;;;;;;;5945556;29;20078;-89
2023/10/27 16:15:45;;;;;;;3.22;1.52;;;;;;;;;;5936404;29;20096;-90
2023/10/27 16:18:47;;;;;;;4.00;1.85;;;;;;;;;;5948461;29;20127;-90
2023/10/27 16:21:51;;;;;;;4.07;3.17;;;;;;;;;;5934701;29;20092;-90
2023/10/27 16:24:53;;;;;;;6.00;1.40;;;;;;;;;;5946921;29;20108;-90
2023/10/27 16:27:54;;;;;;;3.25;1.40;;;;;;;;;;5948724;29;20142;-90
2023/10/27 16:31:02;;;;;;;4.90;1.80;;;;;;;;;;5943925;29;20051;-89
2023/10/27 16:34:04;;;;;;;4.68;1.92;;;;;;;;;;5934749;29;20586;-90
2023/10/27 16:37:07;;;;;;;3.78;1.50;;;;;;;;;;5946793;29;20398;-90
2023/10/27 16:40:09;;;;;;;1.77;1.20;;;;;;;;;;5951351;29;20058;-89
2023/10/27 16:43:11;;;;;;;3.10;1.25;;;;;;;;;;5931768;29;20127;-89
2023/10/27 16:46:13;;;;;;;4.82;1.70;;;;;;;;;;5945340;29;20051;-90
2023/10/27 16:49:14;;;;;;;3.05;1.20;;;;;;;;;;5951217;29;20430;-90
2023/10/27 16:52:17;;;;;;;3.95;1.40;;;;;;;;;;5933071;29;20486;-89
2023/10/27 16:55:18;;;;;;;3.78;1.60;;;;;;;;;;5933333;29;20059;-89
2023/10/27 16:58:20;;;;;;;3.88;1.27;;;;;;;;;;5956425;29;20046;-90
2023/10/27 17:01:23;;;;;;;4.35;1.80;;;;;;;;;;5955135;29;20517;-89
2023/10/27 17:04:27;;;;;;;4.05;1.58;;;;;;;;;;5940164;29;20051;-90
2023/10/27 17:07:29;;;;;;;3.85;1.88;;;;;;;;;;5952041;29;20046;-90
2023/10/27 17:10:31;;;;;;;4.05;1.73;;;;;;;;;;5938564;29;20127;-89
2023/10/27 17:13:33;;;;;;;4.00;1.50;;;;;;;;;;5956236;29;20051;-89
2023/10/27 17:16:38;;;;;;;2.97;1.58;;;;;;;;;;5948052;29;20187;-89
2023/10/27 17:19:40;;;;;;;2.67;1.50;;;;;;;;;;5953560;29;20082;-89
2023/10/27 17:22:43;;;;;;;2.75;1.58;;;;;;;;;;5950802;29;20055;-89
2023/10/27 17:25:45;;;;;;;;;;;;;;;;;;5952236;29;20046;-89
2023/10/27 17:28:47;;;;;;;3.92;1.80;;;;;;;;;;5935931;29;19932;-89
2023/10/27 17:31:49;;;;;;;4.17;1.60;;;;;;;;;;5935528;29;20986;-90
2023/10/27 17:34:52;;;;;;;4.15;1.75;;;;;;;;;;5951835;29;20448;-89
2023/10/27 17:37:54;;;;;;;3.25;1.90;;;;;;;;;;5949949;29;20050;-89
2023/10/27 17:41:10;;;;;;;6.82;2.47;;;;;;;;;;5939898;29;20058;-90
2023/10/27 17:44:12;;;;;;;5.80;2.08;;;;;;;;;;5940012;29;20062;-89
2023/10/27 17:47:14;;;;;;;5.35;2.13;;;;;;;;;;5950231;29;20055;-89
2023/10/27 17:50:17;;;;;;;5.75;1.88;;;;;;;;;;5952150;29;20056;-89
2023/10/27 17:53:19;;;;;;;7.30;2.80;;;;;;;;;;5952223;29;20135;-89
2023/10/27 17:56:20;;;;;;;3.53;2.10;;;;;;;;;;5953740;29;20134;-89
2023/10/27 17:59:22;;;;;;;6.72;2.03;;;;;;;;;;5941746;29;20196;-88
2023/10/27 18:02:25;;;;;;;4.80;1.83;;;;;;;;;;5947964;29;20051;-87
2023/10/27 18:05:27;;;;;;;5.10;1.90;;;;;;;;;;5931324;29;20121;-88
2023/10/27 18:08:29;;;;;;;3.28;1.90;;;;;;;;;;5947332;29;20055;-88
2023/10/27 18:11:31;;;;;;;4.70;1.67;;;;;;;;;;5952005;29;20082;-88
2023/10/27 18:14:33;;;;;;;5.30;2.10;;;;;;;;;;5943328;29;20058;-88
2023/10/27 18:17:34;;;;;;;4.30;2.30;;;;;;;;;;5956465;29;20051;-89